Time;durP1;ratioP1;P1;durP2;ratioP2;P2;SDS_P1;SDS_P2;PMS_P1;PMS_P2;Temp;Humidity;BMP_temperature;BMP_pressure;BME280_temperature;BME280_humidity;BME280_pressure;Samples;Min_cycle;Max_cycle;Signal;HPM_P1;HPM_P2
2021/10/29 00:00:59;;;;;;;9.73;7.07;;;;;;;12.09;62.44;98533.50;5132233;28;20503;-53
2021/10/29 00:03:26;;;;;;;14.85;8.90;;;;;;;12.00;62.63;98542.66;5132009;28;20092;-53
2021/10/29 00:05:52;;;;;;;18.73;8.07;;;;;;;12.06;62.85;98547.06;5132183;28;20091;-52
2021/10/29 00:08:18;;;;;;;10.20;6.90;;;;;;;12.16;62.71;98546.59;5132644;27;20081;-52
2021/10/29 00:10:43;;;;;;;11.70;7.10;;;;;;;12.19;62.10;98546.97;5135925;27;20098;-52
2021/10/29 00:13:10;;;;;;;14.70;8.35;;;;;;;12.28;62.20;98555.41;5136118;27;20023;-52
2021/10/29 00:15:36;;;;;;;12.88;7.65;;;;;;;12.54;62.25;98550.94;5135739;27;20484;-53
2021/10/29 00:18:02;;;;;;;15.77;7.90;;;;;;;12.58;61.40;98546.84;5135820;27;20065;-53
2021/10/29 00:20:28;;;;;;;15.50;8.52;;;;;;;12.58;61.06;98560.81;5135762;27;20075;-53
2021/10/29 00:22:54;;;;;;;13.93;7.18;;;;;;;12.48;61.07;98543.91;5135757;27;20023;-52
2021/10/29 00:25:20;;;;;;;15.48;8.25;;;;;;;12.42;61.36;98550.03;5135662;27;20026;-53
2021/10/29 00:27:47;;;;;;;13.02;7.78;;;;;;;12.42;61.54;98548.19;5117173;27;20041;-53
2021/10/29 00:30:13;;;;;;;14.63;7.28;;;;;;;12.37;61.35;98551.50;5135780;27;20022;-52
2021/10/29 00:32:39;;;;;;;13.90;8.07;;;;;;;12.27;61.63;98542.44;5135783;27;20472;-52
2021/10/29 00:35:05;;;;;;;13.38;7.43;;;;;;;12.35;61.94;98547.44;5135407;27;20483;-53
2021/10/29 00:37:37;;;;;;;11.02;7.85;;;;;;;12.39;61.15;98545.97;5135485;27;20028;-52
2021/10/29 00:40:05;;;;;;;15.98;8.75;;;;;;;12.34;61.68;98545.84;5135445;27;20553;-53
2021/10/29 00:42:30;;;;;;;16.02;7.90;;;;;;;12.31;61.36;98535.72;5135389;27;20015;-52
2021/10/29 00:44:56;;;;;;;10.38;8.15;;;;;;;12.23;61.72;98541.25;5116895;27;20506;-53
2021/10/29 00:47:23;;;;;;;12.40;7.93;;;;;;;12.03;61.48;98538.78;5116793;27;20495;-52
2021/10/29 00:49:48;;;;;;;15.40;8.05;;;;;;;11.89;61.91;98535.44;5135256;27;20023;-53
2021/10/29 00:52:15;;;;;;;13.80;9.13;;;;;;;11.75;62.39;98532.88;5135189;27;20026;-52
2021/10/29 00:54:41;;;;;;;10.52;7.63;;;;;;;11.60;62.90;98538.38;5135095;27;20106;-52
2021/10/29 00:57:08;;;;;;;10.13;7.45;;;;;;;11.49;63.54;98532.97;5135236;27;20598;-53
2021/10/29 00:59:33;;;;;;;16.38;8.57;;;;;;;11.42;64.05;98532.22;5116633;27;20052;-53
2021/10/29 01:01:59;;;;;;;15.60;8.55;;;;;;;11.43;64.17;98528.56;5116155;27;20050;-53
2021/10/29 01:04:25;;;;;;;15.93;8.40;;;;;;;11.42;64.30;98522.50;5116709;27;20027;-52
2021/10/29 01:06:51;;;;;;;13.88;7.45;;;;;;;11.48;64.48;98524.31;5134916;27;20027;-52
2021/10/29 01:09:17;;;;;;;15.48;7.82;;;;;;;11.67;64.02;98517.34;5134873;27;20400;-52
2021/10/29 01:11:43;;;;;;;13.82;6.93;;;;;;;11.73;63.34;98508.59;5116410;27;20416;-52
2021/10/29 01:14:10;;;;;;;14.77;9.52;;;;;;;11.57;64.02;98503.84;5116305;27;20049;-53
2021/10/29 01:16:37;;;;;;;14.25;7.75;;;;;;;11.43;64.75;98502.28;5116144;27;20453;-52
2021/10/29 01:19:04;;;;;;;13.57;9.02;;;;;;;11.47;65.02;98504.31;5134589;27;20046;-52
2021/10/29 01:21:29;;;;;;;9.73;6.90;;;;;;;11.47;64.64;98498.22;5133434;27;20015;-52
2021/10/29 01:23:55;;;;;;;16.27;9.48;;;;;;;11.36;64.94;98490.00;5134579;27;20030;-52
2021/10/29 01:26:21;;;;;;;14.32;10.10;;;;;;;11.26;65.49;98488.84;5115936;27;20034;-53
2021/10/29 01:28:47;;;;;;;13.35;8.50;;;;;;;11.17;65.80;98491.72;5115994;27;20023;-52
2021/10/29 01:31:15;;;;;;;16.27;9.60;;;;;;;11.03;66.25;98491.97;5134631;27;20434;-52
2021/10/29 01:33:41;;;;;;;13.02;7.97;;;;;;;11.06;66.50;98492.34;5134442;27;20031;-53
2021/10/29 01:36:07;;;;;;;14.15;8.27;;;;;;;11.02;66.56;98491.16;5115710;27;20048;-52
2021/10/29 01:38:35;;;;;;;10.70;6.45;;;;;;;10.92;66.44;98494.22;5115802;27;20027;-52
2021/10/29 01:41:02;;;;;;;10.55;6.90;;;;;;;10.78;66.31;98492.66;5134197;27;20038;-53
2021/10/29 01:43:28;;;;;;;13.02;7.32;;;;;;;10.73;66.66;98492.47;5115698;27;20019;-52
2021/10/29 01:45:55;;;;;;;13.20;7.50;;;;;;;10.73;66.71;98489.84;5134127;27;20065;-52
2021/10/29 01:48:23;;;;;;;11.38;7.88;;;;;;;10.83;67.32;98481.56;5134062;27;20030;-53
2021/10/29 01:50:50;;;;;;;11.57;6.22;;;;;;;10.90;66.44;98483.13;5134016;27;20019;-52
2021/10/29 01:53:16;;;;;;;8.85;5.20;;;;;;;10.86;66.91;98474.03;5134213;27;20365;-53
2021/10/29 01:55:42;;;;;;;11.55;7.18;;;;;;;10.85;66.81;98467.19;5115413;27;20084;-52
2021/10/29 01:58:08;;;;;;;13.25;6.32;;;;;;;10.79;67.24;98457.53;5134089;27;20023;-52
2021/10/29 02:00:34;;;;;;;16.38;7.82;;;;;;;10.75;67.25;98449.25;5133733;27;20023;-53
2021/10/29 02:03:00;;;;;;;14.55;7.38;;;;;;;10.85;67.55;98443.56;5133356;27;20096;-52
2021/10/29 02:05:25;;;;;;;8.48;5.35;;;;;;;10.95;66.47;98441.31;5133685;27;20045;-52
2021/10/29 02:07:51;;;;;;;12.52;8.10;;;;;;;11.02;66.63;98438.63;5133744;27;20095;-52
2021/10/29 02:10:17;;;;;;;15.90;5.43;;;;;;;11.18;66.16;98437.34;5133607;27;20417;-53
2021/10/29 02:12:43;;;;;;;9.38;6.03;;;;;;;11.15;65.24;98445.66;5133853;27;20015;-53
2021/10/29 02:15:09;;;;;;;11.00;5.68;;;;;;;10.99;65.74;98441.69;5115028;27;20023;-52
2021/10/29 02:17:35;;;;;;;10.98;6.65;;;;;;;10.94;66.35;98442.31;5115063;27;20035;-53
2021/10/29 02:20:03;;;;;;;10.90;5.95;;;;;;;10.93;66.26;98443.34;5133514;27;20106;-53
2021/10/29 02:22:30;;;;;;;12.32;6.85;;;;;;;10.92;66.64;98454.84;5133422;27;20442;-53
2021/10/29 02:24:55;;;;;;;11.18;7.07;;;;;;;10.87;66.54;98448.63;5133395;27;20053;-52
2021/10/29 02:27:21;;;;;;;13.40;9.68;;;;;;;10.74;66.89;98439.75;5133318;27;20480;-52
2021/10/29 02:29:47;;;;;;;13.95;8.15;;;;;;;10.83;67.84;98435.09;5133307;27;20027;-53
2021/10/29 02:32:12;;;;;;;11.52;8.27;;;;;;;10.85;67.62;98442.78;5114621;27;20062;-52
2021/10/29 02:34:38;;;;;;;14.55;8.70;;;;;;;10.89;67.88;98446.59;5114751;27;20051;-52
2021/10/29 02:37:04;;;;;;;15.10;8.82;;;;;;;11.05;68.51;98448.75;5133276;27;20098;-52
2021/10/29 02:39:30;;;;;;;27.20;11.23;;;;;;;11.48;69.52;98449.94;5133449;27;20030;-53
2021/10/29 02:41:56;;;;;;;13.88;7.68;;;;;;;11.74;67.68;98454.19;5114688;27;20038;-53
2021/10/29 02:44:22;;;;;;;18.77;9.70;;;;;;;11.73;66.01;98442.06;5133030;27;20023;-52
2021/10/29 02:46:48;;;;;;;17.92;9.18;;;;;;;11.74;66.02;98439.22;5114571;28;20015;-53
2021/10/29 02:49:13;;;;;;;11.60;9.05;;;;;;;11.64;66.77;98438.91;5133028;27;20023;-53
2021/10/29 02:51:39;;;;;;;10.95;7.70;;;;;;;11.61;65.62;98431.44;5132944;27;20387;-53
2021/10/29 02:54:05;;;;;;;14.48;8.52;;;;;;;11.54;64.94;98438.56;5132945;27;20028;-53
2021/10/29 02:56:31;;;;;;;12.45;8.60;;;;;;;11.42;65.09;98435.00;5132733;27;20034;-53
2021/10/29 02:58:57;;;;;;;12.05;9.05;;;;;;;11.29;64.95;98422.75;5133091;27;20027;-52
2021/10/29 03:01:23;;;;;;;14.80;8.57;;;;;;;11.19;64.90;98421.38;5114379;27;20023;-52
2021/10/29 03:03:48;;;;;;;63.50;43.95;;;;;;;11.08;65.41;98414.16;5132471;27;20130;-53
2021/10/29 03:06:14;;;;;;;32.05;18.25;;;;;;;10.92;65.96;98402.31;5114308;27;20027;-52
2021/10/29 03:08:40;;;;;;;60.88;11.40;;;;;;;10.90;66.40;98419.31;5132682;27;20072;-53
2021/10/29 03:11:06;;;;;;;19.75;9.55;;;;;;;10.93;66.18;98413.66;5114293;28;20030;-53
2021/10/29 03:13:31;;;;;;;11.95;8.95;;;;;;;10.85;65.97;98400.78;5132750;28;20551;-52
2021/10/29 03:15:57;;;;;;;10.32;8.65;;;;;;;10.77;66.14;98404.44;5132586;28;20441;-52
2021/10/29 03:18:23;;;;;;;11.55;9.57;;;;;;;10.67;66.34;98410.13;5132638;28;20069;-52
2021/10/29 03:20:50;;;;;;;14.73;11.13;;;;;;;10.49;67.08;98408.16;5114203;28;20023;-52
2021/10/29 03:23:17;;;;;;;11.43;10.25;;;;;;;10.33;67.56;98411.22;5114208;28;20497;-53
2021/10/29 03:25:43;;;;;;;23.65;11.65;;;;;;;10.20;69.05;98406.75;5131228;28;20063;-53
2021/10/29 03:28:10;;;;;;;14.88;9.98;;;;;;;10.49;69.36;98412.59;5132563;28;20015;-52
2021/10/29 03:30:36;;;;;;;11.93;10.07;;;;;;;10.73;69.19;98413.72;5114029;28;20101;-53
2021/10/29 03:33:02;;;;;;;19.90;11.25;;;;;;;11.06;69.79;98413.56;5132481;28;20023;-52
2021/10/29 03:35:27;;;;;;;17.60;11.20;;;;;;;11.43;69.42;98405.06;5113967;28;20084;-53
2021/10/29 03:43:35;;;;;;;1390.90;132.40;;;;;;;11.63;69.29;98399.69;5132784;27;20096;-52
2021/10/29 03:48:40;;;;;;;13.18;9.48;;;;;;;11.14;67.10;98396.78;5136467;27;20031;-52
2021/10/29 03:56:41;;;;;;;13.57;10.38;;;;;;;10.49;67.28;98402.91;5118456;27;20518;-53
2021/10/29 03:59:09;;;;;;;17.65;10.50;;;;;;;10.39;67.79;98395.47;5136223;27;20490;-53
2021/10/29 04:01:36;;;;;;;11.90;9.38;;;;;;;10.40;67.84;98396.25;5136121;27;20532;-53
2021/10/29 04:04:01;;;;;;;14.48;9.27;;;;;;;10.34;67.93;98391.84;5135911;27;20043;-52
2021/10/29 04:06:27;;;;;;;13.70;9.77;;;;;;;10.31;68.22;98394.88;5117616;27;20033;-53
2021/10/29 04:08:53;;;;;;;12.65;9.57;;;;;;;10.24;68.11;98400.13;5136017;27;20072;-52
2021/10/29 04:11:22;;;;;;;13.18;9.88;;;;;;;10.29;68.28;98391.63;5135942;27;20055;-53
2021/10/29 04:13:48;;;;;;;11.65;8.70;;;;;;;10.44;67.82;98391.41;5135858;27;20035;-52
2021/10/29 04:16:15;;;;;;;14.18;8.88;;;;;;;10.51;67.39;98394.84;5135717;27;20030;-52
2021/10/29 04:18:40;;;;;;;14.88;9.10;;;;;;;10.59;67.36;98398.03;5135858;27;20152;-52
2021/10/29 04:21:06;;;;;;;11.98;7.80;;;;;;;10.64;66.37;98381.66;5135759;27;20102;-53
2021/10/29 04:23:33;;;;;;;11.82;6.55;;;;;;;10.58;66.32;98383.31;5135731;27;20059;-53
2021/10/29 04:25:59;;;;;;;14.45;8.73;;;;;;;10.49;66.44;98387.16;5117293;27;20486;-53
2021/10/29 04:28:26;;;;;;;10.25;6.93;;;;;;;10.43;66.75;98390.63;5135576;27;20027;-52
2021/10/29 04:30:52;;;;;;;14.65;6.13;;;;;;;10.34;67.08;98378.72;5135496;27;20029;-52
2021/10/29 04:33:19;;;;;;;10.57;6.50;;;;;;;10.30;67.50;98372.28;5135650;27;20027;-53
2021/10/29 04:35:47;;;;;;;15.15;6.05;;;;;;;10.30;66.94;98375.72;5135450;27;20108;-52
2021/10/29 04:38:13;;;;;;;10.95;5.72;;;;;;;10.29;67.39;98374.06;5135522;27;20584;-52
2021/10/29 04:40:41;;;;;;;8.43;6.13;;;;;;;10.35;67.52;98372.47;5135427;27;20037;-52
2021/10/29 04:43:09;;;;;;;12.25;8.95;;;;;;;10.43;67.61;98382.75;5135281;27;20027;-53
2021/10/29 04:45:35;;;;;;;9.68;6.80;;;;;;;10.55;67.38;98380.28;5135330;27;20015;-52
2021/10/29 04:48:03;;;;;;;13.02;8.10;;;;;;;10.55;67.71;98375.84;5135301;27;20549;-52
2021/10/29 04:50:30;;;;;;;10.15;7.00;;;;;;;10.57;67.34;98375.63;5135253;27;20023;-52
2021/10/29 04:52:56;;;;;;;11.20;8.15;;;;;;;10.51;66.45;98379.88;5135194;27;20031;-52
2021/10/29 04:55:22;;;;;;;18.08;8.65;;;;;;;10.33;67.18;98380.56;5134953;27;20068;-52
2021/10/29 04:57:48;;;;;;;13.68;7.47;;;;;;;10.23;67.74;98387.22;5135097;27;20031;-52
2021/10/29 05:00:14;;;;;;;11.57;7.50;;;;;;;10.22;67.84;98385.59;5116607;27;20027;-52
2021/10/29 05:02:40;;;;;;;14.75;8.45;;;;;;;10.22;68.22;98380.34;5134688;27;20039;-52
2021/10/29 05:05:08;;;;;;;13.70;7.60;;;;;;;10.34;67.97;98381.34;5116690;27;20083;-52
2021/10/29 05:07:34;;;;;;;13.40;9.55;;;;;;;10.51;67.61;98376.47;5116454;27;20019;-53
2021/10/29 05:10:01;;;;;;;16.33;9.98;;;;;;;10.67;67.20;98365.50;5134843;27;20023;-53
2021/10/29 05:12:27;;;;;;;26.05;10.98;;;;;;;10.83;67.32;98358.97;5134846;27;20098;-52
2021/10/29 05:14:55;;;;;;;10.10;7.07;;;;;;;10.94;65.98;98355.66;5134701;27;20098;-52
2021/10/29 05:17:21;;;;;;;16.55;8.25;;;;;;;10.88;65.04;98358.34;5134927;27;20023;-52
2021/10/29 05:19:47;;;;;;;15.90;8.43;;;;;;;10.65;65.95;98361.47;5134704;27;20035;-52
2021/10/29 05:22:13;;;;;;;16.42;9.82;;;;;;;10.49;66.29;98366.19;5134574;27;20030;-53
2021/10/29 05:24:39;;;;;;;18.23;10.98;;;;;;;10.41;67.95;98368.22;5134627;27;20023;-52
2021/10/29 05:27:05;;;;;;;13.88;10.25;;;;;;;10.43;67.04;98374.06;5134732;27;20023;-53
2021/10/29 05:29:32;;;;;;;14.45;11.07;;;;;;;10.36;66.94;98368.84;5134449;27;20019;-52
2021/10/29 05:32:00;;;;;;;18.10;10.57;;;;;;;10.34;67.01;98376.09;5134355;27;20549;-53
2021/10/29 05:34:27;;;;;;;14.40;9.48;;;;;;;10.36;66.80;98369.66;5134297;27;20023;-52
2021/10/29 05:36:55;;;;;;;12.90;8.57;;;;;;;10.37;67.00;98376.50;5134185;27;20019;-53
2021/10/29 05:39:21;;;;;;;12.00;7.25;;;;;;;10.33;67.08;98364.81;5134238;27;20609;-52
2021/10/29 05:41:48;;;;;;;15.10;9.52;;;;;;;10.35;67.48;98369.84;5134150;27;20071;-52
2021/10/29 05:44:16;;;;;;;13.35;7.07;;;;;;;10.38;67.28;98385.16;5116301;27;20114;-53
2021/10/29 05:46:43;;;;;;;15.32;10.00;;;;;;;10.37;67.29;98375.69;5134126;27;20019;-53
2021/10/29 05:49:12;;;;;;;15.57;10.63;;;;;;;10.30;67.16;98378.34;5115813;27;20609;-53
2021/10/29 05:51:51;;;;;;;18.65;10.70;;;;;;;10.28;67.92;98380.34;5134032;27;20047;-53
2021/10/29 05:54:40;;;;;;;16.88;12.40;;;;;;;10.41;67.99;98384.78;5133967;27;20080;-52
2021/10/29 05:57:06;;;;;;;15.20;13.05;;;;;;;10.59;66.55;98387.53;5134119;27;20118;-53
2021/10/29 05:59:35;;;;;;;19.13;13.45;;;;;;;10.64;66.33;98386.91;5133849;27;20065;-52
2021/10/29 06:02:03;;;;;;;16.52;12.98;;;;;;;10.48;65.93;98388.16;5134088;27;20411;-53
2021/10/29 06:04:29;;;;;;;18.08;13.27;;;;;;;10.16;66.82;98377.53;5133628;27;20035;-53
2021/10/29 06:06:56;;;;;;;368.95;34.30;;;;;;;9.96;67.91;98385.44;5133170;27;20504;-52
2021/10/29 06:09:22;;;;;;;17.27;13.20;;;;;;;9.89;68.02;98389.88;5133612;27;20019;-53
2021/10/29 06:11:48;;;;;;;20.50;13.20;;;;;;;9.89;68.65;98391.69;5133668;27;20026;-52
2021/10/29 06:14:15;;;;;;;20.58;13.43;;;;;;;10.04;68.26;98399.31;5133612;27;20019;-53
2021/10/29 06:16:41;;;;;;;18.13;13.30;;;;;;;10.17;67.69;98391.47;5133393;27;20065;-52
2021/10/29 06:19:07;;;;;;;22.92;13.38;;;;;;;10.17;67.42;98389.63;5134134;27;20019;-52
2021/10/29 06:21:42;;;;;;;16.92;12.30;;;;;;;10.26;67.75;98394.66;5133432;27;20027;-52
2021/10/29 06:24:14;;;;;;;23.67;13.98;;;;;;;10.46;67.10;98394.63;5133500;27;20046;-52
2021/10/29 06:27:06;;;;;;;17.63;13.75;;;;;;;10.58;66.67;98392.97;5133345;27;20472;-52
2021/10/29 06:29:26;;;;;;;;;;;;;;;10.71;66.30;98397.38;5133088;27;20063;-52
2021/10/29 06:31:51;;;;;;;18.48;11.63;;;;;;;10.83;65.16;98400.97;5133290;27;20015;-52
2021/10/29 06:34:17;;;;;;;20.15;11.60;;;;;;;10.98;65.09;98403.31;5133200;27;20034;-52
2021/10/29 06:36:43;;;;;;;19.90;13.07;;;;;;;11.27;64.26;98404.59;5133212;27;20357;-52
2021/10/29 06:39:09;;;;;;;15.55;12.57;;;;;;;11.68;63.23;98398.03;5114774;27;20141;-52
2021/10/29 06:41:35;;;;;;;21.13;14.50;;;;;;;11.91;61.98;98402.72;5131858;27;20496;-52
2021/10/29 07:40:55;;;;;;;16.40;10.23;;;;;;;16.93;47.09;98440.94;5121419;27;20034;-53
2021/10/29 07:43:41;;;;;;;24.15;11.18;;;;;;;17.35;46.72;98446.41;5118156;27;20054;-52
2021/10/29 07:46:07;;;;;;;16.48;9.80;;;;;;;18.21;45.86;98444.78;5136788;27;20110;-52
2021/10/29 07:48:33;;;;;;;13.68;10.23;;;;;;;18.48;44.29;98446.53;5117998;27;20496;-51
2021/10/29 07:51:04;;;;;;;26.30;11.30;;;;;;;18.64;45.64;98442.09;5136373;27;20034;-51
2021/10/29 07:53:30;;;;;;;14.52;11.18;;;;;;;19.33;42.71;98441.00;5136685;27;20049;-51
2021/10/29 07:55:57;;;;;;;19.90;12.15;;;;;;;19.78;42.09;98438.69;5136155;27;20027;-50
2021/10/29 07:58:23;;;;;;;14.55;11.02;;;;;;;19.64;42.52;98435.72;5136175;27;20026;-49
2021/10/29 08:00:49;;;;;;;22.75;11.18;;;;;;;19.74;42.16;98439.22;5136390;27;20031;-50
2021/10/29 08:03:15;;;;;;;14.70;11.88;;;;;;;19.65;42.06;98438.09;5135839;27;20071;-50
2021/10/29 08:05:45;;;;;;;18.25;10.13;;;;;;;19.98;41.64;98441.34;5117688;27;20573;-49
2021/10/29 08:08:11;;;;;;;18.25;9.20;;;;;;;20.53;40.26;98430.84;5136215;27;20027;-50
2021/10/29 08:10:38;;;;;;;17.42;10.07;;;;;;;21.17;39.22;98425.78;5136032;27;20043;-51
2021/10/29 08:13:04;;;;;;;15.55;9.60;;;;;;;21.90;38.61;98427.69;5117688;27;20023;-50
2021/10/29 08:15:32;;;;;;;14.75;9.20;;;;;;;22.32;36.09;98427.03;5135782;27;20047;-50
2021/10/29 08:17:59;;;;;;;18.90;9.35;;;;;;;22.62;36.17;98424.31;5135872;27;20064;-51
2021/10/29 08:20:25;;;;;;;14.13;8.32;;;;;;;22.55;35.79;98432.66;5135865;27;20015;-49
2021/10/29 08:22:50;;;;;;;14.13;9.05;;;;;;;22.16;36.56;98428.25;5117331;27;20065;-50
2021/10/29 08:25:16;;;;;;;13.38;8.43;;;;;;;21.19;37.22;98432.44;5117339;27;20027;-51
2021/10/29 08:27:42;;;;;;;15.57;8.20;;;;;;;20.40;38.47;98440.19;5100404;27;20150;-51
2021/10/29 08:30:09;;;;;;;14.32;8.40;;;;;;;20.06;39.41;98434.66;5099754;27;20396;-50
2021/10/29 08:32:42;;;;;;;13.02;8.13;;;;;;;20.04;39.96;98434.13;5117207;27;20023;-50
2021/10/29 08:35:10;;;;;;;16.52;9.00;;;;;;;19.87;40.02;98427.22;5135388;27;20035;-51
2021/10/29 08:37:36;;;;;;;10.85;7.40;;;;;;;20.07;39.90;98436.28;5117011;27;20114;-51
2021/10/29 08:40:05;;;;;;;14.20;9.48;;;;;;;20.51;39.44;98430.31;5135414;27;20027;-50
2021/10/29 08:42:32;;;;;;;12.40;8.10;;;;;;;21.24;37.77;98426.28;5135646;27;20034;-50
2021/10/29 08:44:59;;;;;;;15.18;9.52;;;;;;;20.72;38.55;98429.19;5135304;27;20156;-51
2021/10/29 08:47:25;;;;;;;17.20;9.43;;;;;;;20.60;38.92;98422.56;5135312;27;20384;-50
2021/10/29 08:49:52;;;;;;;19.80;8.02;;;;;;;20.67;39.00;98413.22;5099893;27;20023;-51
2021/10/29 08:52:23;;;;;;;15.75;9.60;;;;;;;20.69;38.77;98413.75;5135234;27;20492;-51
2021/10/29 08:54:51;;;;;;;14.65;9.07;;;;;;;21.07;38.53;98405.31;5135100;27;20027;-50
2021/10/29 08:57:18;;;;;;;12.55;8.73;;;;;;;21.62;37.48;98407.91;5135081;27;20027;-49
2021/10/29 08:59:48;;;;;;;13.65;8.50;;;;;;;21.87;37.27;98398.84;5134971;27;20015;-51
2021/10/29 09:02:20;;;;;;;13.57;7.85;;;;;;;22.65;36.39;98397.78;5134682;27;20033;-51
2021/10/29 09:04:53;;;;;;;13.65;8.10;;;;;;;23.50;35.26;98395.28;5135115;27;20027;-50
2021/10/29 09:10:47;;;;;;;13.18;8.25;;;;;;;24.15;33.62;98388.31;5134944;27;20033;-50
2021/10/29 09:16:31;;;;;;;21.25;8.85;;;;;;;25.00;32.44;98380.72;5134792;27;20046;-51
2021/10/29 09:32:57;;;;;;;17.88;9.63;;;;;;;28.79;28.08;98366.00;5135120;27;20158;-51
2021/10/29 09:35:25;;;;;;;19.23;10.35;;;;;;;28.96;27.94;98362.41;5134244;27;20028;-51
2021/10/29 09:38:05;;;;;;;27.15;8.95;;;;;;;29.44;27.78;98353.72;5134337;27;20076;-51
2021/10/29 09:40:34;;;;;;;15.38;9.48;;;;;;;29.90;26.81;98359.13;5134330;27;20023;-50
2021/10/29 09:43:13;;;;;;;17.55;8.93;;;;;;;29.65;27.13;98345.53;5133976;27;20045;-51
2021/10/29 09:45:51;;;;;;;24.83;8.10;;;;;;;29.70;26.71;98341.03;5134375;27;20027;-51
2021/10/29 09:48:29;;;;;;;12.50;7.15;;;;;;;29.39;26.72;98339.63;5134091;27;20027;-49
2021/10/29 09:50:55;;;;;;;21.75;8.27;;;;;;;29.60;27.12;98342.25;5134010;27;20043;-51
2021/10/29 09:58:53;;;;;;;14.10;7.65;;;;;;;30.73;25.39;98327.31;5134067;27;20027;-50
2021/10/29 10:01:20;;;;;;;13.73;7.05;;;;;;;31.09;25.06;98327.53;5133909;27;20023;-51
2021/10/29 10:03:48;;;;;;;7.93;6.18;;;;;;;31.18;24.10;98337.09;5133530;27;20138;-51
2021/10/29 10:06:15;;;;;;;13.93;6.07;;;;;;;31.02;24.08;98315.34;5133728;27;20046;-51
2021/10/29 10:08:42;;;;;;;16.73;5.70;;;;;;;30.79;23.80;98319.72;5133750;27;20034;-50
2021/10/29 10:11:11;;;;;;;10.35;4.70;;;;;;;30.52;23.82;98310.41;5133549;27;20030;-50
2021/10/29 10:13:41;;;;;;;9.57;4.43;;;;;;;30.41;22.20;98310.88;5133670;27;20024;-50
2021/10/29 10:16:09;;;;;;;8.85;2.58;;;;;;;29.62;21.82;98311.06;5133710;27;20109;-50
2021/10/29 10:18:35;;;;;;;9.75;2.22;;;;;;;28.34;22.51;98304.50;5133594;27;20466;-51
2021/10/29 10:21:05;;;;;;;5.97;1.70;;;;;;;27.17;23.10;98307.41;5133370;27;20068;-49
2021/10/29 10:23:38;;;;;;;5.55;2.03;;;;;;;26.30;24.29;98295.47;5133441;27;20038;-51
2021/10/29 10:29:05;;;;;;;14.85;2.40;;;;;;;24.87;25.33;98291.06;5133464;27;20414;-49
2021/10/29 10:40:38;;;;;;;7.28;1.95;;;;;;;24.70;25.48;98289.03;5118160;27;20042;-49
2021/10/29 10:43:45;;;;;;;2.55;1.45;;;;;;;24.08;26.58;98297.53;5133151;27;20078;-50
2021/10/29 10:46:19;;;;;;;2.50;1.52;;;;;;;23.69;26.85;98302.25;5133356;27;20390;-50
2021/10/29 10:49:04;;;;;;;;;;;;;;;23.37;27.13;98291.59;5133588;27;20027;-51
2021/10/29 10:51:44;;;;;;;8.43;1.80;;;;;;;22.99;27.65;98275.56;5132991;27;19907;-50
2021/10/29 10:54:35;;;;;;;5.82;1.70;;;;;;;22.99;27.65;98291.63;5133085;27;20053;-51
2021/10/29 10:59:49;;;;;;;4.82;1.70;;;;;;;22.83;27.85;98289.19;5133019;27;20447;-50
2021/10/29 11:02:37;;;;;;;4.53;1.58;;;;;;;22.72;27.85;98290.44;5132802;27;20054;-51
2021/10/29 11:05:22;;;;;;;4.88;1.50;;;;;;;22.50;27.99;98275.75;5132689;27;20114;-50
2021/10/29 11:10:20;;;;;;;6.80;2.10;;;;;;;22.41;28.98;98282.81;5132762;27;20035;-51
2021/10/29 11:12:46;;;;;;;7.03;2.00;;;;;;;22.43;29.19;98280.66;5114295;28;20051;-51
2021/10/29 11:15:24;;;;;;;3.00;1.10;;;;;;;22.51;28.85;98271.19;5132686;28;20037;-51
2021/10/29 11:18:00;;;;;;;4.90;1.55;;;;;;;22.50;28.86;98277.63;5132759;28;20019;-50
2021/10/29 11:20:46;;;;;;;3.33;1.75;;;;;;;22.46;29.56;98269.38;5132618;28;20031;-51
2021/10/29 11:23:25;;;;;;;3.88;1.73;;;;;;;22.54;29.13;98274.09;5132726;28;20030;-50
2021/10/29 11:26:06;;;;;;;2.58;1.20;;;;;;;22.46;29.17;98268.59;5114411;28;20031;-51
2021/10/29 11:28:41;;;;;;;2.88;1.52;;;;;;;22.59;29.61;98275.09;5133044;28;20437;-50
2021/10/29 11:31:14;;;;;;;5.55;1.60;;;;;;;22.58;29.70;98270.81;5132801;28;20392;-51
2021/10/29 11:33:49;;;;;;;10.18;1.63;;;;;;;22.44;29.49;98257.41;5114477;28;20389;-50
2021/10/29 11:36:26;;;;;;;10.73;2.30;;;;;;;22.32;30.42;98258.59;5114419;28;20107;-51
2021/10/29 11:38:53;;;;;;;5.85;1.95;;;;;;;22.38;30.27;98250.53;5132526;28;20027;-51
2021/10/29 11:41:28;;;;;;;8.35;2.10;;;;;;;22.61;30.35;98257.66;5132446;28;20026;-50
2021/10/29 11:44:25;;;;;;;4.72;1.45;;;;;;;23.02;29.84;98232.19;5114115;28;20027;-51
2021/10/29 11:46:55;;;;;;;6.07;1.60;;;;;;;23.43;29.81;98243.00;5115472;28;20036;-51
2021/10/29 11:49:25;;;;;;;7.47;1.50;;;;;;;24.19;29.07;98237.28;5114037;28;20039;-51
2021/10/29 11:51:56;;;;;;;3.95;1.52;;;;;;;24.80;27.92;98223.59;5132405;28;20030;-51
2021/10/29 11:54:44;;;;;;;7.45;1.70;;;;;;;25.13;27.32;98218.75;5132417;28;20027;-50
2021/10/29 11:57:25;;;;;;;7.78;2.13;;;;;;;25.00;27.05;98220.41;5132412;28;20019;-51
2021/10/29 12:00:09;;;;;;;9.48;3.35;;;;;;;24.94;27.78;98215.47;5132340;28;20091;-51
2021/10/29 12:05:52;;;;;;;3.53;1.60;;;;;;;24.98;27.15;98209.19;5134630;27;20601;-50
2021/10/29 12:08:27;;;;;;;11.15;3.30;;;;;;;24.68;27.73;98211.50;5136048;27;20015;-50
2021/10/29 12:11:03;;;;;;;16.98;3.88;;;;;;;24.71;27.92;98196.72;5119031;27;20037;-51
2021/10/29 12:13:30;;;;;;;79.50;8.15;;;;;;;24.87;27.31;98205.16;5136216;27;20053;-50
2021/10/29 12:15:57;;;;;;;16.58;3.40;;;;;;;24.92;27.40;98191.63;5135932;27;20488;-50
2021/10/29 12:18:29;;;;;;;16.55;2.60;;;;;;;25.27;26.83;98208.75;5117527;27;20133;-50
2021/10/29 12:20:56;;;;;;;7.43;2.42;;;;;;;25.38;26.87;98193.16;5118481;27;20067;-49
2021/10/29 12:23:28;;;;;;;2.15;1.25;;;;;;;25.49;26.41;98199.84;5135946;27;20432;-51
2021/10/29 12:26:03;;;;;;;11.73;4.03;;;;;;;25.81;26.51;98199.78;5135813;27;20059;-50
2021/10/29 12:28:36;;;;;;;;;;;;;;;25.88;26.27;98195.53;5136132;27;20440;-50
2021/10/29 13:01:59;;;;;;;39.03;3.05;;;;;;;23.83;29.83;98168.31;5082131;27;20126;-51
2021/10/29 13:04:45;;;;;;;4.55;1.52;;;;;;;23.62;30.48;98154.50;5134778;27;20039;-51
2021/10/29 13:07:12;;;;;;;8.10;2.88;;;;;;;23.37;31.23;98160.38;5135078;27;20035;-50
2021/10/29 13:09:40;;;;;;;6.65;1.70;;;;;;;23.27;31.34;98148.75;5134835;27;20015;-51
2021/10/29 13:12:27;;;;;;;9.80;1.88;;;;;;;23.15;31.67;98139.63;5116402;27;20396;-50
2021/10/29 13:14:59;;;;;;;69.28;4.70;;;;;;;23.04;31.69;98147.84;5134805;27;20023;-51
2021/10/29 13:17:36;;;;;;;5.45;1.33;;;;;;;22.81;31.95;98165.59;5134761;27;20026;-50
2021/10/29 13:20:37;;;;;;;8.95;1.83;;;;;;;22.84;32.97;98158.84;5134788;27;20480;-51
2021/10/29 13:23:39;;;;;;;12.27;2.10;;;;;;;22.92;32.34;98150.19;5134978;27;20035;-50
2021/10/29 13:28:43;;;;;;;8.40;1.42;;;;;;;22.71;32.37;98141.69;5134556;27;20075;-50
2021/10/29 13:50:42;;;;;;;6.97;1.80;;;;;;;22.15;33.52;98089.88;5134522;27;20240;-50
2021/10/29 13:58:50;;;;;;;7.00;1.58;;;;;;;21.85;33.52;98091.13;5134048;27;20030;-51
2021/10/29 14:01:47;;;;;;;2.78;1.33;;;;;;;21.54;34.04;98104.88;5133815;27;20019;-50
2021/10/29 14:16:16;;;;;;;6.45;1.55;;;;;;;21.46;35.15;98103.63;5132631;27;20528;-50
2021/10/29 14:28:46;;;;;;;4.47;1.58;;;;;;;20.95;35.40;98080.97;5133071;27;20098;-51
2021/10/29 14:31:37;;;;;;;4.50;1.40;;;;;;;20.92;35.36;98078.06;5133455;27;20403;-49
2021/10/29 14:34:46;;;;;;;4.22;1.75;;;;;;;20.89;35.89;98091.97;5132872;27;20023;-51
2021/10/29 14:37:10;;;;;;;8.27;1.70;;;;;;;21.03;35.81;98084.09;5124478;27;20047;-51
2021/10/29 14:40:02;;;;;;;6.90;2.58;;;;;;;21.09;35.15;98085.63;5117951;27;20042;-51
2021/10/29 14:45:34;;;;;;;5.63;1.60;;;;;;;21.09;35.41;98085.63;5110849;27;20120;-50
2021/10/29 15:00:07;;;;;;;7.10;1.90;;;;;;;20.71;36.28;98090.81;5116559;27;20484;-51
2021/10/29 15:05:09;;;;;;;6.47;1.65;;;;;;;20.17;37.70;98095.22;5063585;27;20039;-49
2021/10/29 15:28:54;;;;;;;5.85;1.90;;;;;;;19.93;38.51;98077.25;5132724;28;20088;-51
2021/10/29 15:42:22;;;;;;;2.60;1.65;;;;;;;19.83;38.27;98079.97;5136728;27;20111;-51
2021/10/29 15:44:57;;;;;;;6.28;1.88;;;;;;;19.74;38.17;98074.44;5136636;27;20027;-51